createdAt,value
2017-05-26T00:00:36.781Z,14.94
2017-05-26T00:01:38.621Z,14.86
2017-05-26T00:02:40.457Z,14.88
2017-05-26T00:03:42.300Z,14.86
2017-05-26T00:04:56.440Z,14.99
2017-05-26T00:05:58.261Z,14.94
2017-05-26T00:07:00.102Z,15.09
2017-05-26T00:08:01.940Z,15.16
2017-05-26T00:09:03.756Z,15.14
2017-05-26T00:10:05.600Z,15.20
2017-05-26T00:11:07.436Z,15.19
2017-05-26T00:12:09.252Z,15.14
2017-05-26T00:13:11.099Z,15.27
2017-05-26T00:14:25.222Z,15.21
2017-05-26T00:15:27.064Z,15.23
2017-05-26T00:16:29.109Z,15.23
2017-05-26T00:17:30.949Z,15.32
2017-05-26T00:18:32.794Z,15.32
2017-05-26T00:19:34.631Z,15.34
2017-05-26T00:20:36.451Z,15.32
2017-05-26T00:21:38.392Z,15.43
2017-05-26T00:22:40.210Z,15.43
2017-05-26T00:23:54.388Z,15.50
2017-05-26T00:24:56.226Z,15.51
2017-05-26T00:25:58.067Z,15.49
2017-05-26T00:26:59.914Z,15.53
2017-05-26T00:28:01.734Z,15.56
2017-05-26T00:29:03.577Z,15.47
2017-05-26T00:30:05.392Z,15.39
2017-05-26T00:31:07.206Z,15.51
2017-05-26T00:32:09.075Z,15.44
2017-05-26T00:33:23.198Z,15.53
2017-05-26T00:34:25.038Z,15.50
2017-05-26T00:35:26.857Z,15.56
2017-05-26T00:36:28.696Z,15.50
2017-05-26T00:37:30.846Z,15.50
2017-05-26T00:38:32.656Z,15.32
2017-05-26T00:39:34.494Z,15.39
2017-05-26T00:40:36.321Z,15.41
2017-05-26T00:41:38.157Z,15.36
2017-05-26T00:42:52.433Z,15.28
2017-05-26T00:43:54.242Z,15.34
2017-05-26T00:44:56.087Z,15.25
2017-05-26T00:45:57.898Z,15.25
2017-05-26T00:46:59.751Z,15.20
2017-05-26T00:48:01.959Z,15.23
2017-05-26T00:49:03.770Z,15.21
2017-05-26T00:50:05.592Z,15.27
2017-05-26T00:51:07.437Z,15.28
2017-05-26T00:52:21.579Z,15.21
2017-05-26T00:53:23.427Z,15.21
2017-05-26T00:54:25.271Z,15.31
2017-05-26T00:55:27.107Z,15.34
2017-05-26T00:56:28.952Z,15.27
2017-05-26T00:57:30.795Z,15.25
2017-05-26T00:58:32.644Z,15.23
2017-05-26T00:59:34.479Z,15.23
2017-05-26T01:00:36.324Z,15.23
2017-05-26T01:01:50.493Z,15.20
2017-05-26T01:02:52.339Z,15.19
2017-05-26T01:03:54.285Z,15.14
2017-05-26T01:04:56.122Z,15.14
2017-05-26T01:05:57.964Z,15.11
2017-05-26T01:06:59.800Z,14.99
2017-05-26T01:08:01.611Z,14.98
2017-05-26T01:09:03.861Z,14.91
2017-05-26T01:10:05.701Z,14.91
2017-05-26T01:11:19.869Z,14.91
2017-05-26T01:12:21.683Z,14.84
2017-05-26T01:13:23.523Z,14.80
2017-05-26T01:14:25.387Z,14.78
2017-05-26T01:15:27.206Z,14.77
2017-05-26T01:16:29.044Z,14.80
2017-05-26T01:17:30.887Z,14.75
2017-05-26T01:18:32.702Z,14.68
2017-05-26T01:19:34.741Z,14.62
2017-05-26T01:20:48.917Z,14.65
2017-05-26T01:21:50.759Z,14.62
2017-05-26T01:22:52.596Z,14.61
2017-05-26T01:23:54.417Z,14.61
2017-05-26T01:24:56.367Z,14.64
2017-05-26T01:25:58.203Z,14.61
2017-05-26T01:27:00.047Z,14.58
2017-05-26T01:28:01.861Z,14.62
2017-05-26T01:29:03.706Z,14.58
2017-05-26T01:30:17.896Z,14.54
2017-05-26T01:31:19.716Z,14.52
2017-05-26T01:32:21.559Z,14.54
2017-05-26T01:33:23.368Z,14.42
2017-05-26T01:34:25.187Z,14.39
2017-05-26T01:35:27.026Z,14.40
2017-05-26T01:36:28.882Z,14.35
2017-05-26T01:37:30.707Z,14.29
2017-05-26T01:38:32.549Z,14.28
2017-05-26T01:39:47.102Z,14.25
2017-05-26T01:40:48.944Z,14.17
2017-05-26T01:41:50.782Z,14.07
2017-05-26T01:42:52.627Z,14.03
2017-05-26T01:43:54.464Z,14.10
2017-05-26T01:44:56.281Z,14.06
2017-05-26T01:45:58.225Z,14.02
2017-05-26T01:47:00.065Z,14.00
2017-05-26T01:48:01.910Z,14.02
2017-05-26T01:49:16.082Z,14.04
2017-05-26T01:50:17.919Z,14.03
2017-05-26T01:51:19.789Z,14.14
2017-05-26T01:52:21.603Z,14.17
2017-05-26T01:53:23.419Z,14.04
2017-05-26T01:54:25.260Z,14.04
2017-05-26T01:55:27.072Z,14.12
2017-05-26T01:56:29.119Z,14.06
2017-05-26T01:57:30.953Z,14.07
2017-05-26T01:58:45.097Z,14.04
2017-05-26T01:59:46.911Z,14.00
2017-05-26T02:00:48.755Z,13.95
2017-05-26T02:01:50.842Z,14.07
2017-05-26T02:02:52.684Z,13.99
2017-05-26T02:03:54.526Z,13.99
2017-05-26T02:04:56.369Z,14.06
2017-05-26T02:05:58.184Z,14.04
2017-05-26T02:07:00.128Z,13.95
2017-05-26T02:08:14.248Z,14.02
2017-05-26T02:09:16.069Z,14.02
2017-05-26T02:10:17.907Z,13.96
2017-05-26T02:11:19.718Z,13.92
2017-05-26T02:12:21.885Z,14.09
2017-05-26T02:13:23.703Z,14.03
2017-05-26T02:14:25.546Z,13.96
2017-05-26T02:15:27.357Z,13.96
2017-05-26T02:16:29.174Z,13.96
2017-05-26T02:17:43.337Z,14.03
2017-05-26T02:18:45.156Z,13.95
2017-05-26T02:19:46.997Z,13.96
2017-05-26T02:20:48.834Z,13.96
2017-05-26T02:21:50.681Z,13.95
2017-05-26T02:22:52.542Z,13.85
2017-05-26T02:23:54.355Z,13.77
2017-05-26T02:24:56.191Z,13.82
2017-05-26T02:25:58.012Z,13.78
2017-05-26T02:27:12.283Z,13.84
2017-05-26T02:28:14.131Z,13.81
2017-05-26T02:29:15.968Z,13.70
2017-05-26T02:30:17.787Z,13.70
2017-05-26T02:31:19.608Z,13.81
2017-05-26T02:32:21.446Z,13.70
2017-05-26T02:33:23.557Z,13.71
2017-05-26T02:34:25.377Z,13.71
2017-05-26T02:35:27.194Z,13.64
2017-05-26T02:36:41.359Z,13.62
2017-05-26T02:37:43.176Z,13.60
2017-05-26T02:38:45.047Z,13.59
2017-05-26T02:39:46.887Z,13.52
2017-05-26T02:40:48.733Z,13.62
2017-05-26T02:41:50.571Z,13.60
2017-05-26T02:42:52.389Z,13.52
2017-05-26T02:43:54.410Z,13.55
2017-05-26T02:44:56.248Z,13.49
2017-05-26T02:46:10.422Z,13.46
2017-05-26T02:47:12.266Z,13.54
2017-05-26T02:48:14.110Z,13.52
2017-05-26T02:49:16.028Z,13.55
2017-05-26T02:50:17.852Z,13.52
2017-05-26T02:51:19.670Z,13.57
2017-05-26T02:52:21.513Z,13.55
2017-05-26T02:53:23.360Z,13.54
2017-05-26T02:54:25.203Z,13.49
2017-05-26T02:55:39.376Z,13.52
2017-05-26T02:56:41.220Z,13.63
2017-05-26T02:57:43.063Z,13.54
2017-05-26T02:58:44.883Z,13.57
2017-05-26T02:59:46.723Z,13.57
2017-05-26T03:00:48.549Z,13.57
2017-05-26T03:01:50.387Z,13.52
2017-05-26T03:02:52.204Z,13.57
2017-05-26T03:03:54.049Z,13.46
2017-05-26T03:05:08.566Z,13.42
2017-05-26T03:06:10.389Z,13.51
2017-05-26T03:07:12.233Z,13.51
2017-05-26T03:08:14.051Z,13.57
2017-05-26T03:09:15.899Z,13.62
2017-05-26T03:10:17.938Z,13.60
2017-05-26T03:11:19.754Z,13.78
2017-05-26T03:12:21.575Z,13.82
2017-05-26T03:13:23.418Z,14.07
2017-05-26T03:14:37.563Z,14.06
2017-05-26T03:15:39.410Z,14.21
2017-05-26T03:16:41.263Z,14.35
2017-05-26T03:17:43.105Z,14.54
2017-05-26T03:18:44.953Z,14.57
2017-05-26T03:19:46.798Z,14.77
2017-05-26T03:20:49.046Z,14.96
2017-05-26T03:21:50.865Z,14.99
2017-05-26T03:22:52.706Z,15.19
2017-05-26T03:24:06.867Z,15.35
2017-05-26T03:25:08.716Z,15.47
2017-05-26T03:26:10.864Z,15.68
2017-05-26T03:27:12.705Z,15.80
2017-05-26T03:28:14.531Z,16.02
2017-05-26T03:29:16.378Z,16.08
2017-05-26T03:30:18.228Z,16.24
2017-05-26T03:31:20.106Z,16.42
2017-05-26T03:32:21.956Z,16.43
2017-05-26T03:33:36.061Z,16.64
2017-05-26T03:34:37.906Z,16.93
2017-05-26T03:35:39.738Z,17.00
2017-05-26T03:36:41.985Z,17.16
2017-05-26T03:37:43.833Z,17.19
2017-05-26T03:38:45.672Z,17.38
2017-05-26T03:39:47.499Z,17.58
2017-05-26T03:40:49.345Z,17.75
2017-05-26T03:41:51.292Z,17.95
2017-05-26T03:43:05.469Z,18.14
2017-05-26T03:44:07.279Z,18.32
2017-05-26T03:45:09.127Z,18.50
2017-05-26T03:46:10.951Z,18.72
2017-05-26T03:47:13.174Z,18.88
2017-05-26T03:48:15.021Z,19.11
2017-05-26T03:49:16.847Z,19.33
2017-05-26T03:50:18.704Z,19.59
2017-05-26T03:51:20.554Z,19.71
2017-05-26T03:52:34.704Z,19.81
2017-05-26T03:53:36.532Z,19.76
2017-05-26T03:54:38.350Z,19.84
2017-05-26T03:55:40.173Z,19.88
2017-05-26T03:56:41.999Z,19.84
2017-05-26T03:57:44.025Z,20.06
2017-05-26T03:58:45.876Z,20.10
2017-05-26T03:59:47.708Z,20.14
2017-05-26T04:00:49.554Z,20.24
2017-05-26T04:02:03.784Z,20.50
2017-05-26T04:03:05.609Z,20.72
2017-05-26T04:04:07.433Z,20.94
2017-05-26T04:05:09.264Z,21.16
2017-05-26T04:06:11.110Z,21.43
2017-05-26T04:07:13.009Z,21.59
2017-05-26T04:08:15.168Z,21.71
2017-05-26T04:09:16.999Z,21.74
2017-05-26T04:10:18.846Z,21.92
2017-05-26T04:11:33.030Z,22.03
2017-05-26T04:12:34.884Z,22.15
2017-05-26T04:13:36.736Z,22.33
2017-05-26T04:14:38.589Z,22.31
2017-05-26T04:15:40.415Z,22.36
2017-05-26T04:16:42.245Z,22.36
2017-05-26T04:17:44.099Z,22.45
2017-05-26T04:18:46.151Z,22.31
2017-05-26T04:19:47.976Z,22.39
2017-05-26T04:21:02.089Z,22.47
2017-05-26T04:22:03.945Z,22.61
2017-05-26T04:23:05.771Z,22.73
2017-05-26T04:24:07.725Z,22.83
2017-05-26T04:25:09.558Z,22.94
2017-05-26T04:26:11.380Z,23.01
2017-05-26T04:27:13.237Z,23.22
2017-05-26T04:28:15.067Z,23.39
2017-05-26T04:29:16.923Z,23.53
2017-05-26T04:30:31.098Z,23.58
2017-05-26T04:31:32.928Z,23.72
2017-05-26T04:32:34.787Z,24.06
2017-05-26T04:33:36.604Z,24.21
2017-05-26T04:34:38.492Z,24.37
2017-05-26T04:35:40.318Z,24.58
2017-05-26T04:36:42.173Z,24.84
2017-05-26T04:37:44.027Z,24.93
2017-05-26T04:38:45.862Z,25.02
2017-05-26T04:40:00.071Z,25.06
2017-05-26T04:41:01.901Z,25.28
2017-05-26T04:42:03.749Z,25.45
2017-05-26T04:43:05.589Z,25.51
2017-05-26T04:44:07.443Z,25.69
2017-05-26T04:45:09.323Z,25.73
2017-05-26T04:46:11.179Z,25.87
2017-05-26T04:47:13.010Z,25.87
2017-05-26T04:48:14.837Z,25.95
2017-05-26T04:49:29.248Z,26.12
2017-05-26T04:50:31.080Z,26.23
2017-05-26T04:51:32.939Z,26.33
2017-05-26T04:52:34.796Z,26.43
2017-05-26T04:53:36.624Z,26.51
2017-05-26T04:54:38.481Z,26.45
2017-05-26T04:55:40.537Z,26.51
2017-05-26T04:56:42.366Z,26.57
2017-05-26T04:57:44.219Z,26.63
2017-05-26T04:58:58.334Z,26.72
2017-05-26T05:00:00.191Z,26.73
2017-05-26T05:01:02.049Z,26.72
2017-05-26T05:02:03.901Z,26.72
2017-05-26T05:03:05.734Z,26.73
2017-05-26T05:04:07.582Z,26.81
2017-05-26T05:05:09.417Z,26.81
2017-05-26T05:06:11.296Z,26.75
2017-05-26T05:07:13.148Z,26.85
2017-05-26T05:08:27.293Z,26.81
2017-05-26T05:09:29.143Z,26.89
2017-05-26T05:10:30.976Z,26.89
2017-05-26T05:11:33.188Z,26.95
2017-05-26T05:12:35.039Z,26.82
2017-05-26T05:13:36.893Z,26.70
2017-05-26T05:14:38.723Z,26.65
2017-05-26T05:15:40.548Z,26.60
2017-05-26T05:16:42.427Z,26.28
2017-05-26T05:17:56.566Z,25.76
2017-05-26T05:18:58.417Z,25.33
2017-05-26T05:20:00.278Z,24.81
2017-05-26T05:21:02.122Z,24.24
2017-05-26T05:22:04.152Z,23.73
2017-05-26T05:23:06.006Z,23.65
2017-05-26T05:24:07.866Z,23.51
2017-05-26T05:25:09.713Z,23.23
2017-05-26T05:26:11.569Z,22.97
2017-05-26T05:27:25.735Z,22.54
2017-05-26T05:28:27.592Z,22.17
2017-05-26T05:29:29.438Z,22.03
2017-05-26T05:30:31.266Z,21.84
2017-05-26T05:31:33.092Z,21.80
2017-05-26T05:32:35.062Z,21.82
2017-05-26T05:33:36.897Z,21.56
2017-05-26T05:34:38.750Z,21.32
2017-05-26T05:35:40.572Z,21.14
2017-05-26T05:36:54.685Z,20.70
2017-05-26T05:37:56.536Z,20.52
2017-05-26T05:38:58.386Z,20.28
2017-05-26T05:40:00.231Z,20.05
2017-05-26T05:41:02.144Z,19.78
2017-05-26T05:42:03.961Z,19.56
2017-05-26T05:43:05.815Z,19.32
2017-05-26T05:44:07.635Z,19.10
2017-05-26T05:45:09.467Z,18.92
2017-05-26T05:46:23.574Z,18.84
2017-05-26T05:47:25.424Z,18.72
2017-05-26T05:48:27.472Z,18.62
2017-05-26T05:49:29.322Z,18.62
2017-05-26T05:50:31.143Z,18.50
2017-05-26T05:51:32.971Z,18.48
2017-05-26T05:52:34.824Z,18.48
2017-05-26T05:53:36.678Z,18.30
2017-05-26T05:54:38.524Z,18.21
2017-05-26T05:55:52.654Z,18.03
2017-05-26T05:56:54.506Z,17.93
2017-05-26T05:57:56.329Z,17.78
2017-05-26T05:59:01.360Z,17.77
2017-05-26T06:00:03.183Z,17.77
2017-05-26T06:01:05.007Z,17.79
2017-05-26T06:02:06.855Z,17.81
2017-05-26T06:03:08.685Z,17.79
2017-05-26T06:04:10.535Z,17.86
2017-05-26T06:05:24.714Z,17.86
2017-05-26T06:06:26.539Z,17.84
2017-05-26T06:07:28.365Z,17.72
2017-05-26T06:08:30.182Z,17.62
2017-05-26T06:09:32.286Z,17.55
2017-05-26T06:10:34.107Z,17.62
2017-05-26T06:11:35.929Z,17.70
2017-05-26T06:12:37.757Z,17.71
2017-05-26T06:13:39.612Z,17.77
2017-05-26T06:14:53.992Z,17.86
2017-05-26T06:15:55.843Z,17.78
2017-05-26T06:16:57.670Z,17.86
2017-05-26T06:17:59.517Z,17.90
2017-05-26T06:19:01.341Z,17.93
2017-05-26T06:20:03.390Z,17.84
2017-05-26T06:21:05.210Z,17.81
2017-05-26T06:22:07.035Z,17.64
2017-05-26T06:23:08.891Z,17.68
2017-05-26T06:24:22.996Z,17.70
2017-05-26T06:25:24.848Z,17.74
2017-05-26T06:26:26.670Z,17.66
2017-05-26T06:27:28.526Z,17.68
2017-05-26T06:28:30.367Z,17.74
2017-05-26T06:29:32.193Z,17.59
2017-05-26T06:30:34.150Z,17.56
2017-05-26T06:31:35.996Z,17.56
2017-05-26T06:32:37.822Z,17.52
2017-05-26T06:33:51.998Z,17.70
2017-05-26T06:34:53.828Z,17.64
2017-05-26T06:35:55.877Z,17.81
2017-05-26T06:36:57.702Z,17.93
2017-05-26T06:37:59.524Z,18.00
2017-05-26T06:39:01.351Z,18.10
2017-05-26T06:40:03.177Z,18.12
2017-05-26T06:41:05.227Z,18.18
2017-05-26T06:42:07.048Z,18.14
2017-05-26T06:43:21.233Z,18.03
2017-05-26T06:44:23.079Z,17.97
2017-05-26T06:45:24.901Z,17.93
2017-05-26T06:46:26.773Z,17.96
2017-05-26T06:47:28.598Z,17.97
2017-05-26T06:48:30.411Z,17.84
2017-05-26T06:49:32.241Z,17.64
2017-05-26T06:50:34.100Z,17.72
2017-05-26T06:51:36.008Z,17.72
2017-05-26T06:52:50.104Z,17.68
2017-05-26T06:53:51.949Z,17.78
2017-05-26T06:54:53.779Z,17.96
2017-05-26T06:55:55.607Z,18.07
2017-05-26T06:56:57.457Z,18.20
2017-05-26T06:57:59.302Z,18.15
2017-05-26T06:59:01.151Z,18.18
2017-05-26T07:00:03.002Z,18.29
2017-05-26T07:01:04.852Z,18.47
2017-05-26T07:02:19.321Z,18.50
2017-05-26T07:03:21.190Z,18.47
2017-05-26T07:04:23.040Z,18.54
2017-05-26T07:05:24.941Z,18.47
2017-05-26T07:06:26.787Z,18.41
2017-05-26T07:07:28.645Z,18.50
2017-05-26T07:08:30.489Z,18.47
2017-05-26T07:09:32.313Z,18.58
2017-05-26T07:10:34.165Z,18.69
2017-05-26T07:11:48.352Z,18.76
2017-05-26T07:12:50.204Z,18.94
2017-05-26T07:13:52.035Z,18.92
2017-05-26T07:14:53.886Z,18.95
2017-05-26T07:15:55.757Z,18.95
2017-05-26T07:16:57.579Z,18.90
2017-05-26T07:17:59.628Z,18.73
2017-05-26T07:19:01.479Z,18.60
2017-05-26T07:20:03.328Z,18.63
2017-05-26T07:21:17.440Z,18.73
2017-05-26T07:22:19.368Z,18.69
2017-05-26T07:23:21.376Z,18.55
2017-05-26T07:24:23.233Z,18.58
2017-05-26T07:25:25.091Z,18.63
2017-05-26T07:26:26.945Z,18.69
2017-05-26T07:27:28.791Z,18.75
2017-05-26T07:28:30.826Z,18.73
2017-05-26T07:29:32.751Z,18.78
2017-05-26T07:30:46.909Z,18.84
2017-05-26T07:31:48.782Z,18.85
2017-05-26T07:32:50.632Z,19.02
2017-05-26T07:33:52.715Z,19.21
2017-05-26T07:34:54.571Z,19.36
2017-05-26T07:35:56.425Z,19.51
2017-05-26T07:36:58.253Z,19.50
2017-05-26T07:38:00.076Z,19.61
2017-05-26T07:39:05.130Z,19.62
2017-05-26T07:40:19.289Z,19.48
2017-05-26T07:41:21.140Z,19.55
2017-05-26T07:42:22.972Z,19.58
2017-05-26T07:43:24.828Z,19.61
2017-05-26T07:44:26.689Z,19.63
2017-05-26T07:45:28.510Z,19.80
2017-05-26T07:46:30.343Z,20.02
2017-05-26T07:47:32.194Z,20.18
2017-05-26T07:48:34.025Z,20.39
2017-05-26T07:49:48.175Z,20.43
2017-05-26T07:50:50.026Z,20.32
2017-05-26T07:51:51.882Z,20.35
2017-05-26T07:52:53.733Z,20.28
2017-05-26T07:53:55.580Z,20.18
2017-05-26T07:54:57.433Z,20.21
2017-05-26T07:55:59.255Z,20.24
2017-05-26T07:57:01.111Z,19.95
2017-05-26T07:58:02.940Z,19.95
2017-05-26T07:59:17.074Z,19.84
2017-05-26T08:00:18.925Z,19.80
2017-05-26T08:01:20.776Z,19.84
2017-05-26T08:02:22.609Z,19.92
2017-05-26T08:03:24.581Z,19.99
2017-05-26T08:04:26.500Z,20.06
2017-05-26T08:05:28.542Z,20.24
2017-05-26T08:06:30.414Z,20.28
2017-05-26T08:07:32.248Z,20.39
2017-05-26T08:08:46.458Z,20.33
2017-05-26T08:09:48.318Z,20.41
2017-05-26T08:10:50.170Z,20.42
2017-05-26T08:11:52.021Z,20.54
2017-05-26T08:12:53.911Z,20.64
2017-05-26T08:13:55.782Z,20.70
2017-05-26T08:14:57.651Z,20.66
2017-05-26T08:15:59.525Z,20.55
2017-05-26T08:17:01.367Z,20.73
2017-05-26T08:18:15.562Z,20.69
2017-05-26T08:19:17.442Z,20.66
2017-05-26T08:20:19.325Z,20.80
2017-05-26T08:21:21.234Z,20.80
2017-05-26T08:22:23.098Z,20.87
2017-05-26T08:23:24.964Z,20.77
2017-05-26T08:24:26.823Z,20.76
2017-05-26T08:25:28.658Z,20.59
2017-05-26T08:26:30.538Z,20.69
2017-05-26T08:27:44.726Z,20.73
2017-05-26T08:28:46.600Z,20.70
2017-05-26T08:29:48.565Z,20.85
2017-05-26T08:30:50.409Z,21.12
2017-05-26T08:31:52.476Z,21.25
2017-05-26T08:32:54.301Z,21.42
2017-05-26T08:33:56.157Z,21.52
2017-05-26T08:34:58.018Z,21.38
2017-05-26T08:35:59.874Z,21.28
2017-05-26T08:37:14.054Z,21.12
2017-05-26T08:38:15.879Z,20.89
2017-05-26T08:39:17.731Z,20.82
2017-05-26T08:40:19.646Z,20.84
2017-05-26T08:41:21.514Z,20.82
2017-05-26T08:42:23.720Z,20.82
2017-05-26T08:43:25.553Z,20.88
2017-05-26T08:44:27.382Z,20.98
2017-05-26T08:45:29.232Z,20.99
2017-05-26T08:46:43.370Z,20.98
2017-05-26T08:47:45.197Z,21.01
2017-05-26T08:48:47.074Z,21.07
2017-05-26T08:49:49.097Z,21.09
2017-05-26T08:50:50.904Z,21.37
2017-05-26T08:51:52.821Z,21.49
2017-05-26T08:52:54.748Z,21.54
2017-05-26T08:53:56.617Z,21.49
2017-05-26T08:54:58.521Z,21.59
2017-05-26T08:56:12.688Z,21.62
2017-05-26T08:57:14.596Z,21.47
2017-05-26T08:58:16.589Z,21.29
2017-05-26T08:59:18.457Z,21.28
2017-05-26T09:00:20.313Z,21.17
2017-05-26T09:01:22.558Z,21.17
2017-05-26T09:02:24.367Z,21.14
2017-05-26T09:03:26.249Z,21.16
2017-05-26T09:04:28.108Z,21.19
2017-05-26T09:05:42.292Z,21.44
2017-05-26T09:06:44.150Z,21.49
2017-05-26T09:07:46.010Z,21.65
2017-05-26T09:08:47.959Z,21.64
2017-05-26T09:09:49.817Z,21.79
2017-05-26T09:10:51.672Z,21.74
2017-05-26T09:11:53.595Z,21.80
2017-05-26T09:12:55.498Z,21.98
2017-05-26T09:13:57.609Z,22.12
2017-05-26T09:15:11.973Z,22.05
2017-05-26T09:16:13.817Z,22.03
2017-05-26T09:17:15.656Z,21.94
2017-05-26T09:18:17.512Z,21.90
2017-05-26T09:19:19.367Z,21.86
2017-05-26T09:20:21.273Z,21.82
2017-05-26T09:21:23.172Z,21.90
2017-05-26T09:22:25.020Z,21.98
2017-05-26T09:23:26.854Z,21.94
2017-05-26T09:24:41.518Z,22.05
2017-05-26T09:25:43.369Z,21.99
2017-05-26T09:26:45.203Z,22.00
2017-05-26T09:27:47.115Z,22.03
2017-05-26T09:28:48.969Z,21.83
2017-05-26T09:29:51.018Z,21.64
2017-05-26T09:30:52.849Z,21.52
2017-05-26T09:31:54.706Z,21.50
2017-05-26T09:32:56.535Z,21.56
2017-05-26T09:34:10.707Z,21.49
2017-05-26T09:35:12.560Z,21.42
2017-05-26T09:36:14.383Z,21.25
2017-05-26T09:37:16.216Z,21.32
2017-05-26T09:38:18.069Z,21.24
2017-05-26T09:39:19.902Z,21.29
2017-05-26T09:40:21.803Z,21.35
2017-05-26T09:41:23.639Z,21.34
2017-05-26T09:42:25.466Z,21.50
2017-05-26T09:43:39.655Z,21.46
2017-05-26T09:44:41.557Z,21.52
2017-05-26T09:45:43.842Z,21.68
2017-05-26T09:46:45.746Z,21.75
2017-05-26T09:47:47.641Z,21.75
2017-05-26T09:48:49.546Z,21.92
2017-05-26T09:49:51.397Z,22.06
2017-05-26T09:50:53.308Z,22.03
2017-05-26T09:51:55.160Z,22.12
2017-05-26T09:53:09.295Z,22.15
2017-05-26T09:54:11.126Z,22.31
2017-05-26T09:55:12.975Z,22.33
2017-05-26T09:56:14.858Z,22.35
2017-05-26T09:57:16.742Z,22.35
2017-05-26T09:58:18.632Z,22.12
2017-05-26T09:59:20.502Z,22.14
2017-05-26T10:00:22.372Z,22.17
2017-05-26T10:01:24.284Z,22.06
2017-05-26T10:02:38.428Z,21.91
2017-05-26T10:03:40.286Z,21.96
2017-05-26T10:04:42.162Z,22.00
2017-05-26T10:05:44.012Z,21.90
2017-05-26T10:06:45.986Z,21.86
2017-05-26T10:07:47.918Z,21.87
2017-05-26T10:08:49.746Z,21.91
2017-05-26T10:09:51.616Z,21.96
2017-05-26T10:10:53.443Z,21.99
2017-05-26T10:12:07.824Z,22.03
2017-05-26T10:13:09.675Z,22.17
2017-05-26T10:14:11.532Z,22.28
2017-05-26T10:15:13.405Z,22.35
2017-05-26T10:16:15.267Z,22.43
2017-05-26T10:17:17.124Z,22.62
2017-05-26T10:18:19.049Z,22.58
2017-05-26T10:19:20.947Z,22.52
2017-05-26T10:20:22.837Z,22.46
2017-05-26T10:21:37.194Z,22.55
2017-05-26T10:22:39.196Z,22.68
2017-05-26T10:23:41.050Z,22.77
2017-05-26T10:24:42.909Z,22.70
2017-05-26T10:25:44.761Z,22.62
2017-05-26T10:26:46.644Z,22.61
2017-05-26T10:27:51.905Z,22.54
2017-05-26T10:28:53.761Z,22.60
2017-05-26T10:29:55.617Z,22.65
2017-05-26T10:31:09.724Z,22.57
2017-05-26T10:32:11.551Z,22.55
2017-05-26T10:33:13.437Z,22.54
2017-05-26T10:34:15.282Z,22.62
2017-05-26T10:35:17.116Z,22.64
2017-05-26T10:36:18.967Z,22.67
2017-05-26T10:37:20.828Z,22.45
2017-05-26T10:38:22.675Z,22.51
2017-05-26T10:39:24.681Z,22.35
2017-05-26T10:40:38.930Z,22.47
2017-05-26T10:41:40.764Z,22.28
2017-05-26T10:42:42.615Z,22.31
2017-05-26T10:43:44.499Z,22.42
2017-05-26T10:44:46.358Z,22.60
2017-05-26T10:45:48.209Z,22.58
2017-05-26T10:46:50.088Z,22.72
2017-05-26T10:47:51.937Z,22.70
2017-05-26T10:48:53.851Z,22.72
2017-05-26T10:50:07.980Z,22.75
2017-05-26T10:51:09.897Z,22.90
2017-05-26T10:52:11.771Z,22.95
2017-05-26T10:53:13.628Z,23.05
2017-05-26T10:54:15.508Z,23.31
2017-05-26T10:55:17.361Z,23.43
2017-05-26T10:56:19.220Z,23.51
2017-05-26T10:57:21.049Z,23.38
2017-05-26T10:58:22.903Z,23.38
2017-05-26T10:59:37.118Z,23.31
2017-05-26T11:00:38.948Z,23.27
2017-05-26T11:01:40.797Z,23.25
2017-05-26T11:02:42.641Z,23.35
2017-05-26T11:03:44.488Z,23.20
2017-05-26T11:04:46.586Z,23.05
2017-05-26T11:05:48.498Z,22.97
2017-05-26T11:06:50.363Z,22.77
2017-05-26T11:07:52.257Z,22.68
2017-05-26T11:09:06.411Z,22.80
2017-05-26T11:10:08.266Z,22.85
2017-05-26T11:11:10.141Z,22.86
2017-05-26T11:12:12.120Z,22.86
2017-05-26T11:13:14.026Z,22.83
2017-05-26T11:14:15.907Z,22.82
2017-05-26T11:15:17.782Z,22.73
2017-05-26T11:16:19.644Z,22.76
2017-05-26T11:17:21.619Z,22.91
2017-05-26T11:18:35.826Z,23.05
2017-05-26T11:19:37.676Z,23.01
2017-05-26T11:20:39.664Z,22.95
2017-05-26T11:21:41.551Z,23.17
2017-05-26T11:22:43.424Z,23.17
2017-05-26T11:23:45.328Z,23.04
2017-05-26T11:24:47.150Z,22.92
2017-05-26T11:25:49.035Z,23.05
2017-05-26T11:26:50.940Z,23.13
2017-05-26T11:28:05.250Z,23.33
2017-05-26T11:29:07.124Z,23.47
2017-05-26T11:30:09.050Z,23.48
2017-05-26T11:31:11.074Z,23.50
2017-05-26T11:32:13.006Z,23.42
2017-05-26T11:33:14.915Z,23.36
2017-05-26T11:34:16.765Z,23.12
2017-05-26T11:35:18.615Z,23.20
2017-05-26T11:36:21.150Z,23.33
2017-05-26T11:37:35.273Z,23.39
2017-05-26T11:38:37.097Z,23.60
2017-05-26T11:39:38.928Z,23.68
2017-05-26T11:40:40.779Z,23.76
2017-05-26T11:41:42.663Z,23.97
2017-05-26T11:42:44.878Z,23.97
2017-05-26T11:43:46.844Z,23.73
2017-05-26T11:44:48.798Z,23.75
2017-05-26T11:45:50.705Z,23.66
2017-05-26T11:47:05.092Z,23.75
2017-05-26T11:48:06.945Z,23.90
2017-05-26T11:49:08.806Z,23.94
2017-05-26T11:50:10.662Z,24.05
2017-05-26T11:51:12.523Z,24.10
2017-05-26T11:52:14.439Z,24.02
2017-05-26T11:53:16.290Z,24.05
2017-05-26T11:54:18.171Z,24.28
2017-05-26T11:55:20.029Z,24.16
2017-05-26T11:56:34.270Z,24.08
2017-05-26T11:57:36.154Z,24.10
2017-05-26T11:58:38.009Z,24.12
2017-05-26T11:59:39.844Z,24.12
2017-05-26T12:00:41.673Z,24.05
2017-05-26T12:01:43.530Z,24.10
2017-05-26T12:02:45.459Z,23.98
2017-05-26T12:03:47.462Z,24.08
2017-05-26T12:04:49.465Z,24.05
2017-05-26T12:06:03.601Z,23.94
2017-05-26T12:07:05.459Z,23.80
2017-05-26T12:08:07.522Z,23.70
2017-05-26T12:09:09.404Z,23.79
2017-05-26T12:10:11.285Z,23.68
2017-05-26T12:11:13.138Z,23.57
2017-05-26T12:12:15.005Z,23.60
2017-05-26T12:13:16.855Z,23.69
2017-05-26T12:14:18.708Z,23.84
2017-05-26T12:15:32.899Z,23.88
2017-05-26T12:16:34.733Z,23.83
2017-05-26T12:17:36.583Z,23.93
2017-05-26T12:18:38.693Z,23.98
2017-05-26T12:19:40.520Z,24.09
2017-05-26T12:20:42.356Z,24.00
2017-05-26T12:21:44.207Z,23.93
2017-05-26T12:22:46.039Z,24.05
2017-05-26T12:23:47.895Z,24.16
2017-05-26T12:25:02.011Z,24.43
2017-05-26T12:26:03.839Z,24.53
2017-05-26T12:27:05.693Z,24.50
2017-05-26T12:28:07.560Z,24.52
2017-05-26T12:29:09.417Z,24.31
2017-05-26T12:30:11.273Z,24.22
2017-05-26T12:31:13.123Z,24.13
2017-05-26T12:32:14.981Z,24.40
2017-05-26T12:33:16.815Z,24.45
2017-05-26T12:34:30.997Z,24.57
2017-05-26T12:35:32.825Z,24.53
2017-05-26T12:36:34.724Z,24.50
2017-05-26T12:37:36.547Z,24.49
2017-05-26T12:38:38.399Z,24.42
2017-05-26T12:39:40.334Z,24.35
2017-05-26T12:40:42.197Z,24.08
2017-05-26T12:41:44.050Z,24.02
2017-05-26T12:42:45.904Z,24.03
2017-05-26T12:44:00.044Z,23.98
2017-05-26T12:45:01.898Z,24.13
2017-05-26T12:46:03.730Z,24.10
2017-05-26T12:47:05.578Z,24.08
2017-05-26T12:48:07.414Z,23.93
2017-05-26T12:49:09.237Z,23.78
2017-05-26T12:50:11.111Z,23.83
2017-05-26T12:51:12.942Z,23.65
2017-05-26T12:52:14.799Z,23.48
2017-05-26T12:53:28.912Z,23.48
2017-05-26T12:54:30.766Z,23.57
2017-05-26T12:55:32.623Z,23.66
2017-05-26T12:56:34.481Z,23.57
2017-05-26T12:57:36.330Z,23.48
2017-05-26T12:58:38.162Z,23.48
2017-05-26T12:59:40.018Z,23.42
2017-05-26T13:00:41.976Z,23.46
2017-05-26T13:01:43.808Z,23.53
2017-05-26T13:02:57.999Z,23.50
2017-05-26T13:03:59.871Z,23.43
2017-05-26T13:05:01.729Z,23.53
2017-05-26T13:06:03.586Z,23.48
2017-05-26T13:07:05.436Z,23.46
2017-05-26T13:08:07.268Z,23.50
2017-05-26T13:09:09.123Z,23.51
2017-05-26T13:10:11.009Z,23.58
2017-05-26T13:11:12.887Z,23.55
2017-05-26T13:12:27.041Z,23.38
2017-05-26T13:13:28.901Z,23.27
2017-05-26T13:14:30.835Z,23.31
2017-05-26T13:15:32.799Z,23.38
2017-05-26T13:16:37.965Z,23.53
2017-05-26T13:17:39.818Z,23.57
2017-05-26T13:18:41.681Z,23.60
2017-05-26T13:19:43.562Z,23.72
2017-05-26T13:20:45.418Z,23.76
2017-05-26T13:22:02.617Z,24.02
2017-05-26T13:23:04.463Z,24.10
2017-05-26T13:24:06.300Z,24.05
2017-05-26T13:25:08.217Z,24.16
2017-05-26T13:26:10.138Z,24.27
2017-05-26T13:27:12.080Z,24.22
2017-05-26T13:28:13.971Z,24.16
2017-05-26T13:29:15.848Z,24.08
2017-05-26T13:30:17.710Z,23.98
2017-05-26T13:31:31.919Z,23.91
2017-05-26T13:32:33.783Z,23.97
2017-05-26T13:33:35.652Z,24.02
2017-05-26T13:34:37.544Z,24.10